Hoagland, Indiana
Current Conditions -  °F | °C
As of 3:54 PM on Sunday 21 Dec 2014 (Local Time) from KFWA Reporting Station
Haze Haze  
Wind Chill: 29°   Ceiling: Unl
Heat Index: 35°   Visibility: 6mi
Dew Point: 26°   Wind: 8mph
Humidity: 70%   Direction: 140°SE
Pressure: 30.18"   Gusts: NA
Location:  40.95°N, 84.99°W
Report Text: KFWA 212054Z 14007KT 6SM HZ SCT230 02/M03 A3018 RMK AO2 SLP228 T00171033 56019
Loading
Personal Weather Stations






























Interactive Weather Map New forecast layout! Learn more

10-Day Weather Forecast

Advertisements
Track Severe Weather on mobile